sensor_id;sensor_type;location;lat;lon;timestamp;pressure;altitude;pressure_sealevel;temperature;humidity
41830;BME280;38614;43.472;23.936;2022-09-09T00:00:20;100058.84;;;19.19;nan
41830;BME280;38614;43.472;23.936;2022-09-09T00:03:19;100053.28;;;19.16;nan
41830;BME280;38614;43.472;23.936;2022-09-09T00:06:17;100042.91;;;19.13;nan
41830;BME280;38614;43.472;23.936;2022-09-09T00:09:12;100047.34;;;19.10;nan
41830;BME280;38614;43.472;23.936;2022-09-09T00:15:23;100013.50;;;18.97;nan
41830;BME280;38614;43.472;23.936;2022-09-09T00:21:53;100021.09;;;18.97;nan
41830;BME280;38614;43.472;23.936;2022-09-09T00:24:55;100029.50;;;18.97;nan
41830;BME280;38614;43.472;23.936;2022-09-09T00:27:47;100033.56;;;18.92;nan
41830;BME280;38614;43.472;23.936;2022-09-09T00:30:36;100034.38;;;18.93;nan
41830;BME280;38614;43.472;23.936;2022-09-09T00:33:26;100033.72;;;18.82;nan
41830;BME280;38614;43.472;23.936;2022-09-09T00:36:20;100033.72;;;18.78;nan
41830;BME280;38614;43.472;23.936;2022-09-09T00:39:21;100040.47;;;18.84;nan
41830;BME280;38614;43.472;23.936;2022-09-09T00:48:08;100008.47;;;18.47;nan
41830;BME280;38614;43.472;23.936;2022-09-09T00:51:02;100024.38;;;18.54;nan
41830;BME280;38614;43.472;23.936;2022-09-09T00:54:12;100027.91;;;18.62;nan
41830;BME280;38614;43.472;23.936;2022-09-09T00:57:25;100027.19;;;18.54;nan
41830;BME280;38614;43.472;23.936;2022-09-09T01:09:22;100002.31;;;18.26;nan
41830;BME280;38614;43.472;23.936;2022-09-09T01:12:23;100026.53;;;18.39;nan
41830;BME280;38614;43.472;23.936;2022-09-09T01:15:27;100030.19;;;18.33;nan
41830;BME280;38614;43.472;23.936;2022-09-09T01:18:17;100033.44;;;18.28;nan
41830;BME280;38614;43.472;23.936;2022-09-09T01:24:38;100002.00;;;18.13;nan
41830;BME280;38614;43.472;23.936;2022-09-09T01:28:00;100029.78;;;18.34;nan
41830;BME280;38614;43.472;23.936;2022-09-09T01:30:50;100007.53;;;18.20;nan
41830;BME280;38614;43.472;23.936;2022-09-09T01:33:44;100005.59;;;18.13;nan
41830;BME280;38614;43.472;23.936;2022-09-09T01:39:28;100022.78;;;18.15;nan
41830;BME280;38614;43.472;23.936;2022-09-09T01:42:20;100023.47;;;18.23;nan
41830;BME280;38614;43.472;23.936;2022-09-09T01:45:09;100019.50;;;18.24;nan
41830;BME280;38614;43.472;23.936;2022-09-09T01:47:57;100021.16;;;18.14;nan
41830;BME280;38614;43.472;23.936;2022-09-09T01:51:04;100021.94;;;18.18;nan
41830;BME280;38614;43.472;23.936;2022-09-09T01:53:51;100026.38;;;18.16;nan
41830;BME280;38614;43.472;23.936;2022-09-09T02:09:12;100013.44;;;17.88;nan
41830;BME280;38614;43.472;23.936;2022-09-09T02:12:16;100028.28;;;17.78;nan
41830;BME280;38614;43.472;23.936;2022-09-09T02:15:34;100042.09;;;17.95;nan
41830;BME280;38614;43.472;23.936;2022-09-09T02:18:35;100039.81;;;17.83;nan
41830;BME280;38614;43.472;23.936;2022-09-09T02:21:24;100013.56;;;17.63;nan
41830;BME280;38614;43.472;23.936;2022-09-09T02:24:15;100050.97;;;17.87;nan
41830;BME280;38614;43.472;23.936;2022-09-09T02:27:10;100061.38;;;17.83;nan
41830;BME280;38614;43.472;23.936;2022-09-09T02:30:00;100063.34;;;17.86;nan
41830;BME280;38614;43.472;23.936;2022-09-09T02:32:58;100056.81;;;18.03;nan
41830;BME280;38614;43.472;23.936;2022-09-09T02:36:02;100058.16;;;17.88;nan
41830;BME280;38614;43.472;23.936;2022-09-09T02:38:52;100038.63;;;17.77;nan
41830;BME280;38614;43.472;23.936;2022-09-09T02:41:47;100054.94;;;17.89;nan
41830;BME280;38614;43.472;23.936;2022-09-09T02:44:38;100050.97;;;17.83;nan
41830;BME280;38614;43.472;23.936;2022-09-09T02:50:39;100041.09;;;17.72;nan
41830;BME280;38614;43.472;23.936;2022-09-09T02:56:53;100037.47;;;17.75;nan
41830;BME280;38614;43.472;23.936;2022-09-09T02:59:53;100051.44;;;17.75;nan
41830;BME280;38614;43.472;23.936;2022-09-09T03:02:44;100047.03;;;17.77;nan
41830;BME280;38614;43.472;23.936;2022-09-09T03:05:32;100057.03;;;17.78;nan
41830;BME280;38614;43.472;23.936;2022-09-09T03:08:20;100055.84;;;17.72;nan
41830;BME280;38614;43.472;23.936;2022-09-09T03:11:09;100031.22;;;17.53;nan
41830;BME280;38614;43.472;23.936;2022-09-09T03:13:57;100029.59;;;17.59;nan
41830;BME280;38614;43.472;23.936;2022-09-09T03:16:48;100063.06;;;17.70;nan
41830;BME280;38614;43.472;23.936;2022-09-09T03:19:36;100061.47;;;17.69;nan
41830;BME280;38614;43.472;23.936;2022-09-09T03:22:27;100052.72;;;17.59;nan
41830;BME280;38614;43.472;23.936;2022-09-09T03:25:18;100061.06;;;17.70;nan
41830;BME280;38614;43.472;23.936;2022-09-09T03:28:46;100057.03;;;17.67;nan
41830;BME280;38614;43.472;23.936;2022-09-09T03:31:38;100047.56;;;17.54;nan
41830;BME280;38614;43.472;23.936;2022-09-09T03:34:27;100061.50;;;17.61;nan
41830;BME280;38614;43.472;23.936;2022-09-09T03:37:19;100063.59;;;17.43;nan
41830;BME280;38614;43.472;23.936;2022-09-09T03:40:09;100058.78;;;17.47;nan
41830;BME280;38614;43.472;23.936;2022-09-09T03:45:48;100044.84;;;17.40;nan
41830;BME280;38614;43.472;23.936;2022-09-09T03:48:55;100045.28;;;17.35;nan
41830;BME280;38614;43.472;23.936;2022-09-09T03:51:44;100054.84;;;17.41;nan
41830;BME280;38614;43.472;23.936;2022-09-09T03:54:33;100044.47;;;17.42;nan
41830;BME280;38614;43.472;23.936;2022-09-09T03:57:21;100060.81;;;17.43;nan
41830;BME280;38614;43.472;23.936;2022-09-09T04:00:10;100069.25;;;17.32;nan
41830;BME280;38614;43.472;23.936;2022-09-09T04:03:09;100057.66;;;17.30;nan
41830;BME280;38614;43.472;23.936;2022-09-09T04:05:59;100073.59;;;17.37;nan
41830;BME280;38614;43.472;23.936;2022-09-09T04:08:49;100078.38;;;17.36;nan
41830;BME280;38614;43.472;23.936;2022-09-09T04:11:40;100089.19;;;17.34;nan
41830;BME280;38614;43.472;23.936;2022-09-09T04:14:31;100083.19;;;17.36;nan
41830;BME280;38614;43.472;23.936;2022-09-09T04:17:25;100096.31;;;17.39;nan
41830;BME280;38614;43.472;23.936;2022-09-09T04:20:18;100084.09;;;17.15;nan
41830;BME280;38614;43.472;23.936;2022-09-09T04:23:06;100108.69;;;17.38;nan
41830;BME280;38614;43.472;23.936;2022-09-09T04:26:01;100108.69;;;17.45;nan
41830;BME280;38614;43.472;23.936;2022-09-09T04:28:52;100110.25;;;17.46;nan
41830;BME280;38614;43.472;23.936;2022-09-09T04:31:40;100104.69;;;17.39;nan
41830;BME280;38614;43.472;23.936;2022-09-09T04:34:29;100107.13;;;17.41;nan
41830;BME280;38614;43.472;23.936;2022-09-09T04:37:18;100106.66;;;17.49;nan
41830;BME280;38614;43.472;23.936;2022-09-09T04:40:07;100119.06;;;17.45;nan
41830;BME280;38614;43.472;23.936;2022-09-09T04:43:01;100107.56;;;17.25;nan
41830;BME280;38614;43.472;23.936;2022-09-09T04:45:51;100117.88;;;17.38;nan
41830;BME280;38614;43.472;23.936;2022-09-09T04:48:43;100120.19;;;17.54;nan
41830;BME280;38614;43.472;23.936;2022-09-09T04:51:44;100114.97;;;17.63;nan
41830;BME280;38614;43.472;23.936;2022-09-09T04:54:48;100099.44;;;17.59;nan
41830;BME280;38614;43.472;23.936;2022-09-09T04:57:45;100107.34;;;17.78;nan
41830;BME280;38614;43.472;23.936;2022-09-09T05:00:37;100104.44;;;17.92;nan
41830;BME280;38614;43.472;23.936;2022-09-09T05:03:28;100119.94;;;18.01;nan
41830;BME280;38614;43.472;23.936;2022-09-09T05:06:25;100090.44;;;17.92;nan
41830;BME280;38614;43.472;23.936;2022-09-09T05:09:18;100100.66;;;18.17;nan
41830;BME280;38614;43.472;23.936;2022-09-09T05:12:06;100098.84;;;18.44;nan
41830;BME280;38614;43.472;23.936;2022-09-09T05:14:57;100101.81;;;18.68;nan
41830;BME280;38614;43.472;23.936;2022-09-09T05:17:45;100100.78;;;18.89;nan
41830;BME280;38614;43.472;23.936;2022-09-09T05:20:33;100108.91;;;19.17;nan
41830;BME280;38614;43.472;23.936;2022-09-09T05:23:21;100033.16;;;18.94;nan
41830;BME280;38614;43.472;23.936;2022-09-09T05:26:16;100073.41;;;19.68;nan
41830;BME280;38614;43.472;23.936;2022-09-09T05:29:07;100094.78;;;19.85;nan
41830;BME280;38614;43.472;23.936;2022-09-09T05:32:02;100101.81;;;19.97;nan
41830;BME280;38614;43.472;23.936;2022-09-09T05:34:50;100103.72;;;20.27;nan
41830;BME280;38614;43.472;23.936;2022-09-09T05:37:40;100093.28;;;20.28;nan
41830;BME280;38614;43.472;23.936;2022-09-09T05:40:30;100089.91;;;20.40;nan
41830;BME280;38614;43.472;23.936;2022-09-09T05:43:20;100102.81;;;20.34;nan
41830;BME280;38614;43.472;23.936;2022-09-09T05:46:11;100110.00;;;20.62;nan
41830;BME280;38614;43.472;23.936;2022-09-09T05:49:05;100089.06;;;20.66;nan
41830;BME280;38614;43.472;23.936;2022-09-09T05:52:01;100067.38;;;20.67;nan
41830;BME280;38614;43.472;23.936;2022-09-09T05:54:54;100083.47;;;20.86;nan
41830;BME280;38614;43.472;23.936;2022-09-09T05:57:48;100094.63;;;21.49;nan
41830;BME280;38614;43.472;23.936;2022-09-09T06:00:36;100084.25;;;21.82;nan
41830;BME280;38614;43.472;23.936;2022-09-09T06:03:24;100087.00;;;22.02;nan
41830;BME280;38614;43.472;23.936;2022-09-09T06:06:20;100097.44;;;22.02;nan
41830;BME280;38614;43.472;23.936;2022-09-09T06:09:19;100095.44;;;22.02;nan
41830;BME280;38614;43.472;23.936;2022-09-09T06:12:07;100102.00;;;21.96;nan
41830;BME280;38614;43.472;23.936;2022-09-09T06:14:56;100104.53;;;22.10;nan
41830;BME280;38614;43.472;23.936;2022-09-09T06:17:46;100107.59;;;22.48;nan
41830;BME280;38614;43.472;23.936;2022-09-09T06:20:39;100090.22;;;22.82;nan
41830;BME280;38614;43.472;23.936;2022-09-09T06:23:28;100088.66;;;23.23;nan
41830;BME280;38614;43.472;23.936;2022-09-09T06:26:22;100090.53;;;23.00;nan
41830;BME280;38614;43.472;23.936;2022-09-09T06:29:18;100092.34;;;23.49;nan
41830;BME280;38614;43.472;23.936;2022-09-09T06:32:05;100079.94;;;23.46;nan
41830;BME280;38614;43.472;23.936;2022-09-09T06:34:55;100100.19;;;23.83;nan
41830;BME280;38614;43.472;23.936;2022-09-09T06:37:46;100076.69;;;24.11;nan
41830;BME280;38614;43.472;23.936;2022-09-09T06:40:38;100074.06;;;24.17;nan
41830;BME280;38614;43.472;23.936;2022-09-09T06:43:28;100084.97;;;23.93;nan
41830;BME280;38614;43.472;23.936;2022-09-09T06:46:27;100070.38;;;24.20;nan
41830;BME280;38614;43.472;23.936;2022-09-09T06:49:17;100089.09;;;24.27;nan
41830;BME280;38614;43.472;23.936;2022-09-09T06:52:04;100096.53;;;24.46;nan
41830;BME280;38614;43.472;23.936;2022-09-09T06:54:52;100082.19;;;24.75;nan
41830;BME280;38614;43.472;23.936;2022-09-09T06:57:41;100090.50;;;24.57;nan
41830;BME280;38614;43.472;23.936;2022-09-09T07:00:34;100105.00;;;24.46;nan
41830;BME280;38614;43.472;23.936;2022-09-09T07:03:25;100107.28;;;24.26;nan
41830;BME280;38614;43.472;23.936;2022-09-09T07:06:22;100113.31;;;24.62;nan
41830;BME280;38614;43.472;23.936;2022-09-09T07:09:15;100112.50;;;24.74;nan
41830;BME280;38614;43.472;23.936;2022-09-09T07:12:06;100105.97;;;24.99;nan
41830;BME280;38614;43.472;23.936;2022-09-09T07:14:57;100117.34;;;25.30;nan
41830;BME280;38614;43.472;23.936;2022-09-09T07:17:45;100112.50;;;25.31;nan
41830;BME280;38614;43.472;23.936;2022-09-09T07:20:35;100098.13;;;25.69;nan
41830;BME280;38614;43.472;23.936;2022-09-09T07:23:23;100102.31;;;26.36;nan
41830;BME280;38614;43.472;23.936;2022-09-09T07:26:14;100102.69;;;26.56;nan
41830;BME280;38614;43.472;23.936;2022-09-09T07:29:05;100111.19;;;26.56;nan
41830;BME280;38614;43.472;23.936;2022-09-09T07:31:56;100111.81;;;26.51;nan
41830;BME280;38614;43.472;23.936;2022-09-09T07:34:51;100121.28;;;26.57;nan
41830;BME280;38614;43.472;23.936;2022-09-09T07:37:45;100113.78;;;27.09;nan
41830;BME280;38614;43.472;23.936;2022-09-09T07:40:37;100126.47;;;27.50;nan
41830;BME280;38614;43.472;23.936;2022-09-09T07:43:33;100110.44;;;27.29;nan
41830;BME280;38614;43.472;23.936;2022-09-09T07:46:23;100112.31;;;27.41;nan
41830;BME280;38614;43.472;23.936;2022-09-09T07:49:12;100124.63;;;27.20;nan
41830;BME280;38614;43.472;23.936;2022-09-09T07:52:00;100101.44;;;27.31;nan
41830;BME280;38614;43.472;23.936;2022-09-09T07:54:51;100113.25;;;27.38;nan
41830;BME280;38614;43.472;23.936;2022-09-09T07:58:00;100110.06;;;27.45;nan
41830;BME280;38614;43.472;23.936;2022-09-09T08:00:53;100107.81;;;27.77;nan
41830;BME280;38614;43.472;23.936;2022-09-09T08:03:42;100104.97;;;27.77;nan
41830;BME280;38614;43.472;23.936;2022-09-09T08:06:38;100099.31;;;27.77;nan
41830;BME280;38614;43.472;23.936;2022-09-09T08:09:29;100102.00;;;27.71;nan
41830;BME280;38614;43.472;23.936;2022-09-09T08:12:38;100112.75;;;27.58;nan
41830;BME280;38614;43.472;23.936;2022-09-09T08:15:28;100104.31;;;27.82;nan
41830;BME280;38614;43.472;23.936;2022-09-09T08:18:18;100099.88;;;27.90;nan
41830;BME280;38614;43.472;23.936;2022-09-09T08:21:07;100097.47;;;27.98;nan
41830;BME280;38614;43.472;23.936;2022-09-09T08:23:58;100100.97;;;28.26;nan
41830;BME280;38614;43.472;23.936;2022-09-09T08:26:52;100096.47;;;28.43;nan
41830;BME280;38614;43.472;23.936;2022-09-09T08:29:43;100095.69;;;28.66;nan
41830;BME280;38614;43.472;23.936;2022-09-09T08:32:34;100097.63;;;28.60;nan
41830;BME280;38614;43.472;23.936;2022-09-09T08:35:26;100093.75;;;28.49;nan
41830;BME280;38614;43.472;23.936;2022-09-09T08:38:17;100101.81;;;28.50;nan
41830;BME280;38614;43.472;23.936;2022-09-09T08:47:51;100116.03;;;27.75;nan
41830;BME280;38614;43.472;23.936;2022-09-09T08:50:45;100107.09;;;28.00;nan
41830;BME280;38614;43.472;23.936;2022-09-09T08:53:49;100119.91;;;28.29;nan
41830;BME280;38614;43.472;23.936;2022-09-09T08:56:42;100116.28;;;28.28;nan
41830;BME280;38614;43.472;23.936;2022-09-09T08:59:30;100121.97;;;28.19;nan
41830;BME280;38614;43.472;23.936;2022-09-09T09:06:08;100104.69;;;28.41;nan
41830;BME280;38614;43.472;23.936;2022-09-09T09:09:14;100114.06;;;28.32;nan
41830;BME280;38614;43.472;23.936;2022-09-09T09:12:16;100100.56;;;28.09;nan
41830;BME280;38614;43.472;23.936;2022-09-09T09:15:18;100106.44;;;28.05;nan
41830;BME280;38614;43.472;23.936;2022-09-09T09:18:12;100112.75;;;28.66;nan
41830;BME280;38614;43.472;23.936;2022-09-09T09:21:24;100064.78;;;28.59;nan
41830;BME280;38614;43.472;23.936;2022-09-09T09:24:40;100098.69;;;28.87;nan
41830;BME280;38614;43.472;23.936;2022-09-09T09:27:33;100095.78;;;28.72;nan
41830;BME280;38614;43.472;23.936;2022-09-09T09:30:31;100075.94;;;28.87;nan
41830;BME280;38614;43.472;23.936;2022-09-09T09:33:43;100090.81;;;29.06;nan
41830;BME280;38614;43.472;23.936;2022-09-09T09:39:29;100091.91;;;29.38;nan
41830;BME280;38614;43.472;23.936;2022-09-09T09:42:38;100064.91;;;29.18;nan
41830;BME280;38614;43.472;23.936;2022-09-09T09:45:43;100085.97;;;29.50;nan
41830;BME280;38614;43.472;23.936;2022-09-09T09:49:09;100079.75;;;29.67;nan
41830;BME280;38614;43.472;23.936;2022-09-09T09:52:01;100087.31;;;29.70;nan
41830;BME280;38614;43.472;23.936;2022-09-09T09:54:59;100066.84;;;29.12;nan
41830;BME280;38614;43.472;23.936;2022-09-09T09:58:06;100095.03;;;29.25;nan
41830;BME280;38614;43.472;23.936;2022-09-09T10:00:58;100073.69;;;28.91;nan
41830;BME280;38614;43.472;23.936;2022-09-09T10:04:38;100083.13;;;28.97;nan
41830;BME280;38614;43.472;23.936;2022-09-09T10:07:10;100079.94;;;28.80;nan
41830;BME280;38614;43.472;23.936;2022-09-09T10:10:00;100091.44;;;28.62;nan
41830;BME280;38614;43.472;23.936;2022-09-09T10:13:17;100109.00;;;28.60;nan
41830;BME280;38614;43.472;23.936;2022-09-09T10:19:09;100098.28;;;28.79;nan
41830;BME280;38614;43.472;23.936;2022-09-09T10:25:21;100096.16;;;28.89;nan
41830;BME280;38614;43.472;23.936;2022-09-09T10:34:38;100103.09;;;28.88;nan
41830;BME280;38614;43.472;23.936;2022-09-09T10:37:41;100102.03;;;28.61;nan
41830;BME280;38614;43.472;23.936;2022-09-09T10:40:39;100114.13;;;28.71;nan
41830;BME280;38614;43.472;23.936;2022-09-09T10:56:13;100111.69;;;27.98;nan
41830;BME280;38614;43.472;23.936;2022-09-09T10:59:12;100115.81;;;27.88;nan
41830;BME280;38614;43.472;23.936;2022-09-09T11:02:12;100124.13;;;28.00;nan
41830;BME280;38614;43.472;23.936;2022-09-09T11:08:18;100081.94;;;27.84;nan
41830;BME280;38614;43.472;23.936;2022-09-09T11:11:13;100094.59;;;28.07;nan
41830;BME280;38614;43.472;23.936;2022-09-09T11:14:22;100088.69;;;28.20;nan
41830;BME280;38614;43.472;23.936;2022-09-09T11:17:33;100095.56;;;28.37;nan
41830;BME280;38614;43.472;23.936;2022-09-09T11:20:25;100080.72;;;28.57;nan
41830;BME280;38614;43.472;23.936;2022-09-09T11:23:17;100074.63;;;28.73;nan
41830;BME280;38614;43.472;23.936;2022-09-09T11:26:12;100087.69;;;28.80;nan
41830;BME280;38614;43.472;23.936;2022-09-09T11:29:20;100090.53;;;28.80;nan
41830;BME280;38614;43.472;23.936;2022-09-09T11:42:19;100076.56;;;28.43;nan
41830;BME280;38614;43.472;23.936;2022-09-09T11:45:25;100061.88;;;28.21;nan
41830;BME280;38614;43.472;23.936;2022-09-09T11:48:29;100085.47;;;28.36;nan
41830;BME280;38614;43.472;23.936;2022-09-09T11:54:30;100085.16;;;28.34;nan
41830;BME280;38614;43.472;23.936;2022-09-09T11:57:32;100082.31;;;28.34;nan
41830;BME280;38614;43.472;23.936;2022-09-09T12:03:48;100077.41;;;28.34;nan
41830;BME280;38614;43.472;23.936;2022-09-09T12:07:49;100085.81;;;27.96;nan
41830;BME280;38614;43.472;23.936;2022-09-09T12:10:23;100079.47;;;28.01;nan
41830;BME280;38614;43.472;23.936;2022-09-09T12:13:22;100078.53;;;28.04;nan
41830;BME280;38614;43.472;23.936;2022-09-09T12:16:34;100046.34;;;27.74;nan
41830;BME280;38614;43.472;23.936;2022-09-09T12:19:25;100076.94;;;28.03;nan
41830;BME280;38614;43.472;23.936;2022-09-09T12:22:57;100062.44;;;28.01;nan
41830;BME280;38614;43.472;23.936;2022-09-09T12:26:12;100049.03;;;28.01;nan
41830;BME280;38614;43.472;23.936;2022-09-09T12:29:38;100043.81;;;28.33;nan
41830;BME280;38614;43.472;23.936;2022-09-09T12:32:28;100044.59;;;28.33;nan
41830;BME280;38614;43.472;23.936;2022-09-09T12:35:23;100031.31;;;28.06;nan
41830;BME280;38614;43.472;23.936;2022-09-09T12:38:27;100022.56;;;27.95;nan
41830;BME280;38614;43.472;23.936;2022-09-09T12:41:27;100047.28;;;28.04;nan
41830;BME280;38614;43.472;23.936;2022-09-09T12:44:16;100036.81;;;27.86;nan
41830;BME280;38614;43.472;23.936;2022-09-09T12:47:04;100049.63;;;27.72;nan
41830;BME280;38614;43.472;23.936;2022-09-09T12:49:52;100052.78;;;27.74;nan
41830;BME280;38614;43.472;23.936;2022-09-09T12:52:40;100046.38;;;27.55;nan
41830;BME280;38614;43.472;23.936;2022-09-09T12:55:37;100050.28;;;27.67;nan
41830;BME280;38614;43.472;23.936;2022-09-09T12:58:26;100049.50;;;27.58;nan
41830;BME280;38614;43.472;23.936;2022-09-09T13:01:24;100041.97;;;27.45;nan
41830;BME280;38614;43.472;23.936;2022-09-09T13:04:20;100020.22;;;27.42;nan
41830;BME280;38614;43.472;23.936;2022-09-09T13:07:11;100022.03;;;27.73;nan
41830;BME280;38614;43.472;23.936;2022-09-09T13:10:01;100028.38;;;27.68;nan
41830;BME280;38614;43.472;23.936;2022-09-09T13:12:52;100024.31;;;27.93;nan
41830;BME280;38614;43.472;23.936;2022-09-09T13:15:49;100012.91;;;28.02;nan
41830;BME280;38614;43.472;23.936;2022-09-09T13:18:40;100001.84;;;28.04;nan
41830;BME280;38614;43.472;23.936;2022-09-09T13:21:41;99994.66;;;27.94;nan
41830;BME280;38614;43.472;23.936;2022-09-09T13:24:34;99995.88;;;27.69;nan
41830;BME280;38614;43.472;23.936;2022-09-09T13:27:30;99974.63;;;27.55;nan
41830;BME280;38614;43.472;23.936;2022-09-09T13:30:31;99993.19;;;27.65;nan
41830;BME280;38614;43.472;23.936;2022-09-09T13:33:38;100001.25;;;27.58;nan
41830;BME280;38614;43.472;23.936;2022-09-09T13:36:31;100001.91;;;27.52;nan
41830;BME280;38614;43.472;23.936;2022-09-09T13:39:19;100004.16;;;27.48;nan
41830;BME280;38614;43.472;23.936;2022-09-09T13:42:24;99996.47;;;27.31;nan
41830;BME280;38614;43.472;23.936;2022-09-09T13:45:22;99972.41;;;27.17;nan
41830;BME280;38614;43.472;23.936;2022-09-09T13:48:18;99980.59;;;27.15;nan
41830;BME280;38614;43.472;23.936;2022-09-09T13:51:42;99981.84;;;27.23;nan
41830;BME280;38614;43.472;23.936;2022-09-09T13:54:31;99962.19;;;27.01;nan
41830;BME280;38614;43.472;23.936;2022-09-09T13:57:24;99992.94;;;27.03;nan
41830;BME280;38614;43.472;23.936;2022-09-09T14:00:12;99970.88;;;26.79;nan
41830;BME280;38614;43.472;23.936;2022-09-09T14:03:00;99987.09;;;26.88;nan
41830;BME280;38614;43.472;23.936;2022-09-09T14:05:51;99990.41;;;26.86;nan
41830;BME280;38614;43.472;23.936;2022-09-09T14:08:41;99994.34;;;26.89;nan
41830;BME280;38614;43.472;23.936;2022-09-09T14:11:32;99981.09;;;26.95;nan
41830;BME280;38614;43.472;23.936;2022-09-09T14:14:20;99991.97;;;27.06;nan
41830;BME280;38614;43.472;23.936;2022-09-09T14:17:08;99988.19;;;27.18;nan
41830;BME280;38614;43.472;23.936;2022-09-09T14:19:57;99991.59;;;27.31;nan
41830;BME280;38614;43.472;23.936;2022-09-09T14:22:45;99979.59;;;27.36;nan
41830;BME280;38614;43.472;23.936;2022-09-09T14:25:33;99979.81;;;27.57;nan
41830;BME280;38614;43.472;23.936;2022-09-09T14:28:20;99979.44;;;27.73;nan
41830;BME280;38614;43.472;23.936;2022-09-09T14:31:25;99955.53;;;28.13;nan
41830;BME280;38614;43.472;23.936;2022-09-09T14:34:13;99962.78;;;28.37;nan
41830;BME280;38614;43.472;23.936;2022-09-09T14:37:01;99963.47;;;28.47;nan
41830;BME280;38614;43.472;23.936;2022-09-09T14:39:49;99954.28;;;28.52;nan
41830;BME280;38614;43.472;23.936;2022-09-09T14:42:38;99950.38;;;28.64;nan
41830;BME280;38614;43.472;23.936;2022-09-09T14:45:25;99957.94;;;28.67;nan
41830;BME280;38614;43.472;23.936;2022-09-09T14:48:14;99954.88;;;28.56;nan
41830;BME280;38614;43.472;23.936;2022-09-09T14:51:12;99956.28;;;28.61;nan
41830;BME280;38614;43.472;23.936;2022-09-09T14:54:00;99953.50;;;28.52;nan
41830;BME280;38614;43.472;23.936;2022-09-09T14:56:49;99958.41;;;28.51;nan
41830;BME280;38614;43.472;23.936;2022-09-09T14:59:37;99961.59;;;28.29;nan
41830;BME280;38614;43.472;23.936;2022-09-09T15:02:25;99956.44;;;28.19;nan
41830;BME280;38614;43.472;23.936;2022-09-09T15:05:12;99957.59;;;28.12;nan
41830;BME280;38614;43.472;23.936;2022-09-09T15:08:00;99954.84;;;28.18;nan
41830;BME280;38614;43.472;23.936;2022-09-09T15:10:48;99943.34;;;27.97;nan
41830;BME280;38614;43.472;23.936;2022-09-09T15:13:39;99941.47;;;27.94;nan
41830;BME280;38614;43.472;23.936;2022-09-09T15:16:28;99948.44;;;27.93;nan
41830;BME280;38614;43.472;23.936;2022-09-09T15:19:18;99956.63;;;27.91;nan
41830;BME280;38614;43.472;23.936;2022-09-09T15:22:06;99955.06;;;27.90;nan
41830;BME280;38614;43.472;23.936;2022-09-09T15:24:54;99954.31;;;27.80;nan
41830;BME280;38614;43.472;23.936;2022-09-09T15:27:42;99969.06;;;27.70;nan
41830;BME280;38614;43.472;23.936;2022-09-09T15:30:31;99959.28;;;27.62;nan
41830;BME280;38614;43.472;23.936;2022-09-09T15:33:20;99961.66;;;27.63;nan
41830;BME280;38614;43.472;23.936;2022-09-09T15:39:04;99958.47;;;27.37;nan
41830;BME280;38614;43.472;23.936;2022-09-09T15:41:54;99952.09;;;27.18;nan
41830;BME280;38614;43.472;23.936;2022-09-09T15:44:43;99962.28;;;27.25;nan
41830;BME280;38614;43.472;23.936;2022-09-09T15:47:39;99963.09;;;27.16;nan
41830;BME280;38614;43.472;23.936;2022-09-09T15:50:30;99964.56;;;27.03;nan
41830;BME280;38614;43.472;23.936;2022-09-09T15:53:19;99962.22;;;26.92;nan
41830;BME280;38614;43.472;23.936;2022-09-09T15:56:08;99955.44;;;26.80;nan
41830;BME280;38614;43.472;23.936;2022-09-09T15:59:06;99972.00;;;26.82;nan
41830;BME280;38614;43.472;23.936;2022-09-09T16:01:55;99951.06;;;26.61;nan
41830;BME280;38614;43.472;23.936;2022-09-09T16:04:47;99938.19;;;26.51;nan
41830;BME280;38614;43.472;23.936;2022-09-09T16:07:38;99962.75;;;26.63;nan
41830;BME280;38614;43.472;23.936;2022-09-09T16:10:26;99961.19;;;26.53;nan
41830;BME280;38614;43.472;23.936;2022-09-09T16:13:14;99961.00;;;26.47;nan
41830;BME280;38614;43.472;23.936;2022-09-09T16:16:03;99958.16;;;26.29;nan
41830;BME280;38614;43.472;23.936;2022-09-09T16:18:57;99959.25;;;26.22;nan
41830;BME280;38614;43.472;23.936;2022-09-09T16:21:47;99957.97;;;26.14;nan
41830;BME280;38614;43.472;23.936;2022-09-09T16:24:38;99954.50;;;26.01;nan
41830;BME280;38614;43.472;23.936;2022-09-09T16:27:26;99959.22;;;25.95;nan
41830;BME280;38614;43.472;23.936;2022-09-09T16:30:14;99954.19;;;25.90;nan
41830;BME280;38614;43.472;23.936;2022-09-09T16:33:02;99959.50;;;25.78;nan
41830;BME280;38614;43.472;23.936;2022-09-09T16:35:50;99956.28;;;25.67;nan
41830;BME280;38614;43.472;23.936;2022-09-09T16:38:38;99951.22;;;25.53;nan
41830;BME280;38614;43.472;23.936;2022-09-09T16:41:30;99939.84;;;25.35;nan
41830;BME280;38614;43.472;23.936;2022-09-09T16:44:21;99949.44;;;25.37;nan
41830;BME280;38614;43.472;23.936;2022-09-09T16:47:12;99945.97;;;25.33;nan
41830;BME280;38614;43.472;23.936;2022-09-09T16:50:00;99949.88;;;25.26;nan
41830;BME280;38614;43.472;23.936;2022-09-09T16:52:48;99953.75;;;25.20;nan
41830;BME280;38614;43.472;23.936;2022-09-09T16:55:40;99954.03;;;25.13;nan
41830;BME280;38614;43.472;23.936;2022-09-09T16:58:28;99955.13;;;25.06;nan
41830;BME280;38614;43.472;23.936;2022-09-09T17:01:16;99953.94;;;24.94;nan
41830;BME280;38614;43.472;23.936;2022-09-09T17:04:14;99963.72;;;24.81;nan
41830;BME280;38614;43.472;23.936;2022-09-09T17:10:21;99954.06;;;24.47;nan
41830;BME280;38614;43.472;23.936;2022-09-09T17:13:09;99937.97;;;24.35;nan
41830;BME280;38614;43.472;23.936;2022-09-09T17:15:57;99934.25;;;24.25;nan
41830;BME280;38614;43.472;23.936;2022-09-09T17:18:50;99961.91;;;24.30;nan